createdAt,value
2024-04-15T00:00:16.214Z,28.10
2024-04-15T00:05:24.334Z,28.00
2024-04-15T00:10:30.312Z,28.00
2024-04-15T00:15:38.158Z,27.90
2024-04-15T00:20:43.355Z,27.90
2024-04-15T00:25:48.491Z,27.90
2024-04-15T00:30:56.492Z,27.90
2024-04-15T00:36:01.849Z,27.90
2024-04-15T00:41:07.285Z,27.80
2024-04-15T00:46:15.698Z,27.80
2024-04-15T00:51:22.084Z,27.80
2024-04-15T00:56:27.723Z,27.80
2024-04-15T01:01:35.855Z,27.70
2024-04-15T01:06:41.211Z,27.70
2024-04-15T01:11:46.699Z,27.70
2024-04-15T01:16:54.541Z,27.70
2024-04-15T01:21:59.763Z,27.70
2024-04-15T01:27:07.920Z,27.70
2024-04-15T01:32:13.201Z,27.70
2024-04-15T01:37:18.708Z,27.70
2024-04-15T01:42:26.601Z,27.60
2024-04-15T01:47:31.812Z,27.60
2024-04-15T01:52:37.344Z,27.60
2024-04-15T01:57:45.894Z,27.60
2024-04-15T02:02:51.041Z,27.60
2024-04-15T02:07:59.364Z,27.60
2024-04-15T02:13:07.478Z,27.60
2024-04-15T02:18:12.729Z,27.60
2024-04-15T02:23:18.214Z,27.50
2024-04-15T02:28:26.217Z,27.50
2024-04-15T02:33:31.387Z,27.50
2024-04-15T02:38:36.517Z,27.50
2024-04-15T02:43:44.338Z,27.50
2024-04-15T02:48:49.484Z,27.50
2024-04-15T02:53:54.770Z,27.50
2024-04-15T02:59:02.563Z,27.40
2024-04-15T03:04:07.879Z,27.40
2024-04-15T03:09:13.081Z,27.40
2024-04-15T03:14:20.940Z,27.40
2024-04-15T03:19:26.132Z,27.30
2024-04-15T03:24:31.444Z,27.30
2024-04-15T03:29:39.242Z,27.30
2024-04-15T03:34:44.399Z,27.30
2024-04-15T03:39:51.437Z,27.30
2024-04-15T03:44:59.832Z,27.30
2024-04-15T03:50:05.008Z,27.30
2024-04-15T03:55:10.250Z,27.20
2024-04-15T04:00:19.464Z,27.30
2024-04-15T04:05:24.631Z,27.30
2024-04-15T04:10:30.769Z,27.20
2024-04-15T04:15:45.745Z,27.20
2024-04-15T04:20:50.954Z,27.20
2024-04-15T04:25:56.202Z,27.20
2024-04-15T04:31:07.958Z,27.20
2024-04-15T04:36:14.141Z,27.20
2024-04-15T04:41:19.321Z,27.30
2024-04-15T04:46:27.097Z,27.20
2024-04-15T04:51:32.732Z,27.20
2024-04-15T04:56:38.165Z,27.10
2024-04-15T05:01:46.106Z,26.90
2024-04-15T05:06:51.759Z,26.80
2024-04-15T05:11:57.013Z,26.60
2024-04-15T05:17:05.874Z,26.50
2024-04-15T05:22:11.082Z,26.30
2024-04-15T05:27:16.305Z,26.20
2024-04-15T05:32:24.152Z,26.20
2024-04-15T05:37:29.534Z,26.10
2024-04-15T05:42:35.041Z,26.00
2024-04-15T05:47:42.967Z,26.00
2024-04-15T05:52:48.188Z,25.90
2024-04-15T05:57:53.632Z,25.90
2024-04-15T06:03:01.837Z,25.90
2024-04-15T06:08:11.248Z,25.80
2024-04-15T06:13:17.008Z,25.80
2024-04-15T06:18:24.956Z,25.70
2024-04-15T06:23:30.406Z,25.70
2024-04-15T06:28:35.681Z,25.70
2024-04-15T06:33:43.570Z,25.70
2024-04-15T06:38:49.621Z,25.80
2024-04-15T06:43:54.751Z,25.80
2024-04-15T06:49:02.839Z,25.90
2024-04-15T06:54:08.334Z,26.00
2024-04-15T06:59:13.529Z,26.10
2024-04-15T07:04:21.497Z,26.20
2024-04-15T07:09:26.712Z,26.30
2024-04-15T07:14:31.895Z,26.40
2024-04-15T07:19:39.771Z,26.60
2024-04-15T07:24:44.989Z,26.80
2024-04-15T07:29:51.200Z,27.10
2024-04-15T07:34:59.099Z,27.30
2024-04-15T07:40:04.562Z,27.50
2024-04-15T07:45:10.294Z,27.70
2024-04-15T07:50:18.287Z,27.90
2024-04-15T07:55:23.502Z,28.00
2024-04-15T08:00:28.781Z,28.20
2024-04-15T08:05:37.407Z,28.40
2024-04-15T08:10:42.699Z,28.50
2024-04-15T08:15:50.245Z,28.60
2024-04-15T08:21:01.413Z,28.70
2024-04-15T08:26:07.816Z,28.70
2024-04-15T08:31:13.102Z,28.80
2024-04-15T08:36:20.919Z,28.80
2024-04-15T08:41:30.670Z,28.90
2024-04-15T08:46:43.161Z,29.00
2024-04-15T08:51:53.228Z,28.90
2024-04-15T08:57:04.086Z,29.00
2024-04-15T09:02:10.300Z,29.00
2024-04-15T09:07:18.435Z,29.00
2024-04-15T09:12:23.781Z,29.00
2024-04-15T09:17:29.234Z,28.90
2024-04-15T09:22:38.236Z,28.90
2024-04-15T09:27:43.570Z,28.90
2024-04-15T09:32:48.840Z,28.90
2024-04-15T09:37:57.251Z,28.80
2024-04-15T09:43:03.084Z,28.80
2024-04-15T09:48:09.076Z,28.70
2024-04-15T09:53:23.604Z,28.70
2024-04-15T09:58:30.155Z,28.70
2024-04-15T10:03:38.436Z,28.70
2024-04-15T10:08:46.505Z,28.70
2024-04-15T10:13:52.330Z,28.80
2024-04-15T10:18:58.045Z,28.90
2024-04-15T10:24:07.186Z,29.00
2024-04-15T10:29:20.001Z,29.00
2024-04-15T10:34:26.386Z,29.00
2024-04-15T10:39:35.065Z,29.10
2024-04-15T10:44:40.247Z,29.10
2024-04-15T10:49:45.464Z,29.10
2024-04-15T10:54:53.314Z,29.20
2024-04-15T10:59:58.735Z,29.20
2024-04-15T11:05:04.015Z,29.20
2024-04-15T11:10:13.562Z,29.20
2024-04-15T11:15:20.100Z,29.20
2024-04-15T11:20:26.661Z,29.30
2024-04-15T11:25:35.317Z,29.40
2024-04-15T11:30:41.252Z,29.40
2024-04-15T11:35:52.600Z,29.50
2024-04-15T11:41:00.705Z,29.50
2024-04-15T11:46:06.887Z,29.60
2024-04-15T11:51:12.801Z,29.70
2024-04-15T11:56:21.241Z,29.80
2024-04-15T12:01:26.544Z,29.70
2024-04-15T12:06:32.055Z,29.70
2024-04-15T12:11:39.990Z,29.70
2024-04-15T12:16:45.253Z,29.50
2024-04-15T12:21:50.788Z,29.50
2024-04-15T12:26:58.683Z,29.40
2024-04-15T12:32:03.910Z,29.30
2024-04-15T12:37:09.290Z,29.10
2024-04-15T12:42:17.776Z,29.00
2024-04-15T12:47:23.064Z,28.80
2024-04-15T12:52:28.391Z,28.60
2024-04-15T12:57:36.355Z,28.50
2024-04-15T13:02:41.994Z,28.40
2024-04-15T13:07:47.306Z,28.30
2024-04-15T13:12:55.297Z,28.10
2024-04-15T13:18:01.033Z,28.00
2024-04-15T13:23:06.842Z,27.90
2024-04-15T13:28:14.728Z,27.80
2024-04-15T13:33:20.034Z,27.70
2024-04-15T13:38:25.545Z,27.60
2024-04-15T13:43:33.530Z,27.60
2024-04-15T13:48:39.221Z,27.50
2024-04-15T13:53:44.431Z,27.40
2024-04-15T13:58:52.535Z,27.30
2024-04-15T14:03:58.764Z,27.20
2024-04-15T14:09:03.985Z,27.00
2024-04-15T14:14:13.652Z,26.80
2024-04-15T14:19:19.131Z,26.60
2024-04-15T14:24:24.340Z,26.50
2024-04-15T14:29:32.206Z,26.30
2024-04-15T14:34:37.445Z,26.20
2024-04-15T14:39:42.924Z,26.00
2024-04-15T14:44:51.410Z,25.80
2024-04-15T14:49:57.988Z,25.70
2024-04-15T14:55:03.282Z,25.50
2024-04-15T15:00:16.580Z,25.50
2024-04-15T15:05:21.857Z,25.50
2024-04-15T15:10:27.129Z,25.50
2024-04-15T15:15:35.114Z,25.40
2024-04-15T15:20:40.328Z,25.40
2024-04-15T15:25:45.635Z,25.30
2024-04-15T15:30:53.548Z,25.30
2024-04-15T15:35:58.932Z,25.20
2024-04-15T15:41:04.704Z,25.10
2024-04-15T15:46:13.856Z,25.00
2024-04-15T15:51:19.032Z,24.90
2024-04-15T15:56:24.302Z,24.90
2024-04-15T16:01:32.237Z,24.80
2024-04-15T16:06:37.462Z,24.80
2024-04-15T16:11:46.739Z,24.70
2024-04-15T16:16:55.293Z,24.70
2024-04-15T16:22:00.558Z,24.60
2024-04-15T16:27:05.963Z,24.60
2024-04-15T16:32:17.665Z,24.60
2024-04-15T16:37:22.947Z,24.50
2024-04-15T16:42:28.768Z,24.50
2024-04-15T16:47:36.987Z,24.40
2024-04-15T16:52:43.232Z,24.40
2024-04-15T16:57:48.564Z,24.40
2024-04-15T17:02:58.372Z,24.40
2024-04-15T17:08:05.659Z,24.30
2024-04-15T17:13:11.350Z,24.30
2024-04-15T17:18:20.866Z,24.20
2024-04-15T17:23:26.854Z,24.20
2024-04-15T17:28:32.916Z,24.10
2024-04-15T17:33:41.692Z,24.10
2024-04-15T17:38:47.669Z,24.10
2024-04-15T17:43:53.542Z,24.20
2024-04-15T17:49:03.598Z,24.20
2024-04-15T17:54:13.704Z,24.20
2024-04-15T17:59:20.046Z,24.30
2024-04-15T18:04:28.542Z,24.30
2024-04-15T18:09:35.827Z,24.30
2024-04-15T18:14:41.753Z,24.20
2024-04-15T18:19:49.644Z,24.20
2024-04-15T18:24:55.293Z,24.10
2024-04-15T18:30:01.177Z,24.00
2024-04-15T18:35:11.249Z,24.00
2024-04-15T18:40:17.676Z,23.90
2024-04-15T18:45:25.131Z,23.90
2024-04-15T18:50:34.473Z,23.90
2024-04-15T18:55:40.547Z,23.90
2024-04-15T19:00:46.216Z,24.00
2024-04-15T19:05:55.083Z,24.00
2024-04-15T19:11:01.490Z,24.00
2024-04-15T19:16:08.462Z,24.10
2024-04-15T19:21:16.583Z,24.10
2024-04-15T19:26:22.177Z,24.10
2024-04-15T19:31:33.093Z,24.10
2024-04-15T19:36:43.060Z,24.10
2024-04-15T19:41:48.805Z,24.10
2024-04-15T19:46:55.140Z,24.20
2024-04-15T19:52:04.342Z,24.20
2024-04-15T19:57:10.915Z,24.20
2024-04-15T20:02:19.745Z,24.30
2024-04-15T20:07:28.247Z,24.30
2024-04-15T20:12:33.563Z,24.30
2024-04-15T20:18:07.616Z,24.20
2024-04-15T20:23:17.155Z,24.20
2024-04-15T20:28:23.966Z,24.10
2024-04-15T20:33:29.946Z,24.00
2024-04-15T20:38:38.746Z,23.80
2024-04-15T20:43:44.192Z,23.70
2024-04-15T20:48:49.426Z,23.60
2024-04-15T20:53:59.002Z,23.60
2024-04-15T20:59:04.194Z,23.40
2024-04-15T21:04:18.600Z,23.30
2024-04-15T21:09:32.267Z,23.30
2024-04-15T21:14:37.981Z,23.30
2024-04-15T21:19:43.166Z,23.30
2024-04-15T21:24:52.532Z,23.20
2024-04-15T21:29:57.760Z,23.20
2024-04-15T21:35:03.105Z,23.20
2024-04-15T21:40:12.532Z,23.30
2024-04-15T21:45:18.510Z,23.30
2024-04-15T21:50:24.320Z,23.30
2024-04-15T21:55:32.903Z,23.40
2024-04-15T22:00:38.195Z,23.40
2024-04-15T22:05:43.659Z,23.50
2024-04-15T22:10:52.124Z,23.60
2024-04-15T22:15:57.388Z,23.60
2024-04-15T22:21:02.672Z,23.80
2024-04-15T22:26:10.574Z,23.80
2024-04-15T22:31:15.902Z,23.90
2024-04-15T22:36:21.119Z,23.80
2024-04-15T22:41:28.867Z,23.80
2024-04-15T22:46:34.392Z,23.80
2024-04-15T22:51:39.543Z,23.90
2024-04-15T22:56:47.947Z,23.80
2024-04-15T23:01:53.163Z,23.80
2024-04-15T23:06:58.437Z,23.80
2024-04-15T23:12:07.700Z,23.80
2024-04-15T23:17:12.902Z,23.80
2024-04-15T23:22:18.195Z,23.80
2024-04-15T23:27:26.045Z,23.80
2024-04-15T23:32:31.289Z,23.80
2024-04-15T23:37:36.481Z,23.90
2024-04-15T23:42:44.599Z,23.90
2024-04-15T23:48:09.243Z,23.90
2024-04-15T23:53:33.026Z,23.90
2024-04-15T23:58:59.252Z,23.90
